This is the latest recevied weather packets stored in our database for station/object DL1MMS-10. If no packets are shown the sender has not sent any weather packets the latest 10 day(s).
| Time | Temp. | Humidity | Pressure | Rain* | Wind** | Luminosity | Snow |
|---|---|---|---|---|---|---|---|
| 1778166648 | 22.78° C | 45% | 1014.6 hPa | 0 mm | - | - | - |
| 1778166347 | 20.56° C | 47% | 1014.6 hPa | 0 mm | - | - | - |
| 1778166047 | 20.56° C | 48% | 1014.6 hPa | 0 mm | - | - | - |
| 1778165747 | 19.44° C | 48% | 1014.6 hPa | 0 mm | - | - | - |
| 1778165447 | 19.44° C | 47% | 1014.5 hPa | 0 mm | - | - | - |
| 1778165146 | 20° C | 46% | 1014.6 hPa | 0 mm | - | - | - |
| 1778164846 | 20.56° C | 45% | 1014.6 hPa | 0 mm | - | - | - |
| 1778164546 | 21.67° C | 43% | 1014.6 hPa | 0 mm | - | - | - |
| 1778164245 | 22.22° C | 43% | 1014.6 hPa | 0 mm | - | - | - |
| 1778163945 | 21.11° C | 44% | 1014.4 hPa | 0 mm | - | - | - |
| 1778163645 | 21.67° C | 45% | 1014.5 hPa | 0 mm | - | - | - |
| 1778163344 | 21.67° C | 45% | 1014.8 hPa | 0 mm | - | - | - |
| 1778163044 | 21.11° C | 46% | 1014.6 hPa | 0 mm | - | - | - |
| 1778162744 | 20.56° C | 46% | 1014.6 hPa | 0 mm | - | - | - |
| 1778162444 | 20.56° C | 46% | 1014.6 hPa | 0 mm | - | - | - |
| 1778162143 | 20° C | 47% | 1014.5 hPa | 0 mm | - | - | - |
| 1778161843 | 20° C | 47% | 1014.6 hPa | 0 mm | - | - | - |
| 1778161543 | 19.44° C | 47% | 1014.7 hPa | 0 mm | - | - | - |
| 1778161242 | 19.44° C | 43% | 1014.7 hPa | 0 mm | - | - | - |
| 1778160942 | 20° C | 42% | 1014.6 hPa | 0 mm | - | - | - |
| 1778160642 | 20.56° C | 42% | 1014.5 hPa | 0 mm | - | - | - |
| 1778160342 | 20.56° C | 42% | 1014.5 hPa | 0 mm | - | - | - |
| 1778160041 | 20° C | 43% | 1014.7 hPa | 0 mm | - | - | - |
| 1778159741 | 19.44° C | 44% | 1014.5 hPa | 0 mm | - | - | - |
| 1778159441 | 20° C | 44% | 1014.5 hPa | 0 mm | - | - | - |
* Rain latest hour (hover to see other rain measurements)
** Current wind speed in m/s (hover to see current wind gust speed)